createdAt,value
2018-12-08T00:03:15.563Z,96372.42
2018-12-08T00:13:34.936Z,96381.63
2018-12-08T00:23:55.618Z,96371.83
2018-12-08T00:34:17.363Z,96359.98
2018-12-08T00:44:38.727Z,96358.97
2018-12-08T00:55:00.296Z,96333.83
2018-12-08T01:05:19.368Z,96318.22
2018-12-08T01:15:38.644Z,96321.45
2018-12-08T01:25:57.895Z,96313.00
2018-12-08T01:36:17.894Z,96323.59
2018-12-08T01:46:36.634Z,96303.50
2018-12-08T01:56:56.822Z,96330.69
2018-12-08T02:07:15.923Z,96369.19
2018-12-08T02:17:34.646Z,96476.06
2018-12-08T02:27:55.847Z,96546.65
2018-12-08T02:38:15.248Z,96564.35
2018-12-08T02:48:34.100Z,96572.70
2018-12-08T02:58:54.218Z,96583.32
2018-12-08T03:09:13.763Z,96614.25
2018-12-08T03:19:34.138Z,96612.58
2018-12-08T03:29:53.635Z,96616.41
2018-12-08T03:40:13.723Z,96630.59
2018-12-08T03:50:32.607Z,96628.56
2018-12-08T04:00:52.727Z,96657.42
2018-12-08T04:11:11.966Z,96671.22
2018-12-08T04:21:31.021Z,96675.48
2018-12-08T04:31:50.502Z,96694.94
2018-12-08T04:42:10.767Z,96716.83
2018-12-08T04:52:30.245Z,96726.83
2018-12-08T05:02:50.309Z,96765.76
2018-12-08T05:13:09.939Z,96765.82
2018-12-08T05:23:36.847Z,96786.83
2018-12-08T05:33:57.623Z,96812.08
2018-12-08T05:44:18.527Z,96836.45
2018-12-08T05:54:38.451Z,96855.72
2018-12-08T06:04:57.811Z,96866.13
2018-12-08T06:15:19.251Z,96861.61
2018-12-08T06:25:38.809Z,96872.93
2018-12-08T06:35:58.685Z,96899.75
2018-12-08T06:46:18.310Z,96981.20
2018-12-08T06:56:37.339Z,96997.77
2018-12-08T07:06:57.303Z,96970.20
2018-12-08T07:17:17.453Z,96975.06
2018-12-08T07:27:37.881Z,96956.41
2018-12-08T07:37:58.275Z,96959.64
2018-12-08T07:48:18.645Z,96944.27
2018-12-08T07:58:38.574Z,96959.08
2018-12-08T08:08:58.502Z,96982.80
2018-12-08T08:19:18.746Z,97000.09
2018-12-08T08:29:37.675Z,96980.39
2018-12-08T08:39:57.212Z,96971.92
2018-12-08T08:50:19.525Z,96984.63
2018-12-08T09:00:39.454Z,96969.77
2018-12-08T09:10:59.445Z,96967.41
2018-12-08T09:21:19.455Z,96936.80
2018-12-08T09:31:39.209Z,96946.56
2018-12-08T09:41:58.308Z,96942.37
2018-12-08T09:52:18.166Z,96908.81
2018-12-08T10:02:38.434Z,96904.39
2018-12-08T10:12:57.011Z,96882.18
2018-12-08T10:23:16.830Z,96882.41
2018-12-08T10:33:37.468Z,96898.41
2018-12-08T10:43:56.532Z,96897.13
2018-12-08T10:54:15.685Z,96882.28
2018-12-08T11:04:34.572Z,96884.28
2018-12-08T11:15:00.712Z,96887.05
2018-12-08T11:25:14.923Z,96875.19
2018-12-08T11:35:34.415Z,96876.80
2018-12-08T11:45:53.833Z,96877.08
2018-12-08T11:56:13.977Z,96862.90
2018-12-08T12:06:35.134Z,96873.41
2018-12-08T12:16:54.521Z,96852.22
2018-12-08T12:27:14.438Z,96843.08
2018-12-08T12:37:37.952Z,96838.81
2018-12-08T12:47:58.136Z,96813.89
2018-12-08T12:58:18.828Z,96818.07
2018-12-08T13:08:39.900Z,96802.38
2018-12-08T13:19:01.528Z,96794.42
2018-12-08T13:29:21.681Z,96811.34
2018-12-08T13:39:41.495Z,96796.95
2018-12-08T13:50:00.699Z,96788.23
2018-12-08T14:00:20.963Z,96774.44
2018-12-08T14:10:41.612Z,96764.90
2018-12-08T14:21:01.060Z,96758.23
2018-12-08T14:31:21.563Z,96752.22
2018-12-08T14:41:42.040Z,96762.03
2018-12-08T14:52:02.979Z,96759.13
2018-12-08T15:13:02.538Z,96744.88
2018-12-08T15:23:22.853Z,96756.73
2018-12-08T15:33:44.531Z,96764.08
2018-12-08T15:44:05.178Z,96759.25
2018-12-08T15:54:26.238Z,96768.48
2018-12-08T16:04:46.615Z,96783.98
2018-12-08T16:15:09.536Z,96783.98
2018-12-08T16:25:29.792Z,96789.74
2018-12-08T16:35:50.876Z,96774.98
2018-12-08T16:46:13.138Z,96761.98
2018-12-08T16:56:33.245Z,96771.30
2018-12-08T17:06:52.839Z,96783.56
2018-12-08T17:17:14.183Z,96796.33
2018-12-08T17:27:39.525Z,96807.45
2018-12-08T17:38:00.375Z,96780.94
2018-12-08T17:48:21.685Z,96741.98
2018-12-08T17:58:42.530Z,96740.89
2018-12-08T18:09:05.730Z,96714.91
2018-12-08T18:19:28.558Z,96723.59
2018-12-08T18:29:49.571Z,96711.94
2018-12-08T18:40:09.928Z,96734.84
2018-12-08T18:50:33.825Z,96739.36
2018-12-08T19:00:54.070Z,96709.03
2018-12-08T22:03:55.448Z,96577.97
2018-12-08T22:14:16.293Z,96572.80
2018-12-08T22:24:37.054Z,96550.42
2018-12-08T22:34:56.339Z,96544.56
2018-12-08T22:45:17.067Z,96539.81
2018-12-08T22:55:36.102Z,96512.60
2018-12-08T23:05:56.232Z,96483.52
2018-12-08T23:16:16.152Z,96438.75
2018-12-08T23:26:36.345Z,96397.00
2018-12-08T23:36:55.782Z,96374.07
2018-12-08T23:47:15.090Z,96344.39
2018-12-08T23:57:35.029Z,96332.56
